sensor_id;sensor_type;location;lat;lon;timestamp;pressure;altitude;pressure_sealevel;temperature;humidity
68941;BME280;55982;51.476;7.552;2022-08-19T00:00:16;99496.34;;;17.14;100.00
68941;BME280;55982;51.476;7.552;2022-08-19T00:02:42;99494.53;;;17.14;100.00
68941;BME280;55982;51.476;7.552;2022-08-19T00:05:09;99503.72;;;17.09;100.00
68941;BME280;55982;51.476;7.552;2022-08-19T00:07:35;99511.19;;;17.02;100.00
68941;BME280;55982;51.476;7.552;2022-08-19T00:10:00;99513.75;;;17.04;100.00
68941;BME280;55982;51.476;7.552;2022-08-19T00:12:26;99519.03;;;17.04;100.00
68941;BME280;55982;51.476;7.552;2022-08-19T00:14:52;99516.78;;;16.98;100.00
68941;BME280;55982;51.476;7.552;2022-08-19T00:17:19;99517.91;;;16.94;100.00
68941;BME280;55982;51.476;7.552;2022-08-19T00:19:45;99519.81;;;16.92;100.00
68941;BME280;55982;51.476;7.552;2022-08-19T00:22:11;99518.31;;;16.88;100.00
68941;BME280;55982;51.476;7.552;2022-08-19T00:24:36;99513.88;;;16.88;100.00
68941;BME280;55982;51.476;7.552;2022-08-19T00:27:03;99517.28;;;16.90;100.00
68941;BME280;55982;51.476;7.552;2022-08-19T00:29:28;99518.31;;;16.88;100.00
68941;BME280;55982;51.476;7.552;2022-08-19T00:31:54;99520.19;;;16.86;100.00
68941;BME280;55982;51.476;7.552;2022-08-19T00:34:22;99506.25;;;16.84;100.00
68941;BME280;55982;51.476;7.552;2022-08-19T00:36:48;99514.91;;;16.86;100.00
68941;BME280;55982;51.476;7.552;2022-08-19T00:39:15;99512.81;;;16.91;100.00
68941;BME280;55982;51.476;7.552;2022-08-19T00:41:43;99507.34;;;16.94;100.00
68941;BME280;55982;51.476;7.552;2022-08-19T00:44:16;99500.56;;;16.90;100.00
68941;BME280;55982;51.476;7.552;2022-08-19T00:46:44;99501.22;;;16.93;100.00
68941;BME280;55982;51.476;7.552;2022-08-19T00:52:00;99511.72;;;16.81;100.00
68941;BME280;55982;51.476;7.552;2022-08-19T00:54:27;99506.06;;;16.73;100.00
68941;BME280;55982;51.476;7.552;2022-08-19T00:56:53;99501.53;;;16.75;100.00
68941;BME280;55982;51.476;7.552;2022-08-19T00:59:19;99502.19;;;16.78;100.00
68941;BME280;55982;51.476;7.552;2022-08-19T01:01:46;99504.38;;;16.72;100.00
68941;BME280;55982;51.476;7.552;2022-08-19T01:04:12;99500.22;;;16.68;100.00
68941;BME280;55982;51.476;7.552;2022-08-19T01:06:39;99496.66;;;16.69;100.00
68941;BME280;55982;51.476;7.552;2022-08-19T01:09:06;99498.53;;;16.67;100.00
68941;BME280;55982;51.476;7.552;2022-08-19T01:11:35;99514.28;;;16.68;100.00
68941;BME280;55982;51.476;7.552;2022-08-19T01:14:00;99510.03;;;16.66;100.00
68941;BME280;55982;51.476;7.552;2022-08-19T01:16:27;99512.66;;;16.66;100.00
68941;BME280;55982;51.476;7.552;2022-08-19T01:18:54;99510.59;;;16.71;100.00
68941;BME280;55982;51.476;7.552;2022-08-19T01:21:36;99508.50;;;16.76;100.00
68941;BME280;55982;51.476;7.552;2022-08-19T01:24:03;99505.13;;;16.74;100.00
68941;BME280;55982;51.476;7.552;2022-08-19T01:26:29;99506.25;;;16.70;100.00
68941;BME280;55982;51.476;7.552;2022-08-19T01:28:57;99507.22;;;16.69;100.00
68941;BME280;55982;51.476;7.552;2022-08-19T01:31:26;99507.22;;;16.69;100.00
68941;BME280;55982;51.476;7.552;2022-08-19T01:33:54;99498.16;;;16.73;100.00
68941;BME280;55982;51.476;7.552;2022-08-19T01:36:34;99504.38;;;16.72;100.00
68941;BME280;55982;51.476;7.552;2022-08-19T01:39:03;99499.28;;;16.69;100.00
68941;BME280;55982;51.476;7.552;2022-08-19T01:41:28;99494.19;;;16.66;100.00
68941;BME280;55982;51.476;7.552;2022-08-19T01:43:54;99495.13;;;16.65;100.00
68941;BME280;55982;51.476;7.552;2022-08-19T01:46:21;99496.28;;;16.61;100.00
68941;BME280;55982;51.476;7.552;2022-08-19T01:48:47;99493.63;;;16.61;100.00
68941;BME280;55982;51.476;7.552;2022-08-19T01:51:12;99493.84;;;16.58;100.00
68941;BME280;55982;51.476;7.552;2022-08-19T01:53:39;99493.63;;;16.61;100.00
68941;BME280;55982;51.476;7.552;2022-08-19T01:56:07;99489.09;;;16.63;100.00
68941;BME280;55982;51.476;7.552;2022-08-19T01:58:38;99483.44;;;16.55;100.00
68941;BME280;55982;51.476;7.552;2022-08-19T02:01:06;99478.53;;;16.48;100.00
68941;BME280;55982;51.476;7.552;2022-08-19T02:03:31;99472.22;;;16.51;100.00
68941;BME280;55982;51.476;7.552;2022-08-19T02:06:02;99470.56;;;16.50;100.00
68941;BME280;55982;51.476;7.552;2022-08-19T02:08:29;99470.25;;;16.40;100.00
68941;BME280;55982;51.476;7.552;2022-08-19T02:10:56;99470.31;;;16.39;100.00
68941;BME280;55982;51.476;7.552;2022-08-19T02:13:22;99469.19;;;16.43;100.00
68941;BME280;55982;51.476;7.552;2022-08-19T02:15:47;99467.50;;;16.42;100.00
68941;BME280;55982;51.476;7.552;2022-08-19T02:18:13;99468.53;;;16.39;100.00
68941;BME280;55982;51.476;7.552;2022-08-19T02:20:41;99476.06;;;16.31;100.00
68941;BME280;55982;51.476;7.552;2022-08-19T02:23:07;99480.50;;;16.31;100.00
68941;BME280;55982;51.476;7.552;2022-08-19T02:25:33;99488.72;;;16.26;100.00
68941;BME280;55982;51.476;7.552;2022-08-19T02:27:59;99486.19;;;16.25;100.00
68941;BME280;55982;51.476;7.552;2022-08-19T02:30:24;99487.00;;;16.25;100.00
68941;BME280;55982;51.476;7.552;2022-08-19T02:32:51;99496.16;;;16.34;100.00
68941;BME280;55982;51.476;7.552;2022-08-19T02:35:18;99495.97;;;16.37;100.00
68941;BME280;55982;51.476;7.552;2022-08-19T02:37:44;99494.19;;;16.37;100.00
68941;BME280;55982;51.476;7.552;2022-08-19T02:40:50;99486.09;;;16.40;100.00
68941;BME280;55982;51.476;7.552;2022-08-19T02:43:17;99486.75;;;16.44;100.00
68941;BME280;55982;51.476;7.552;2022-08-19T02:45:42;99484.16;;;16.42;100.00
68941;BME280;55982;51.476;7.552;2022-08-19T02:48:08;99486.09;;;16.40;100.00
68941;BME280;55982;51.476;7.552;2022-08-19T02:50:37;99486.47;;;16.34;100.00
68941;BME280;55982;51.476;7.552;2022-08-19T02:53:03;99490.03;;;16.33;100.00
68941;BME280;55982;51.476;7.552;2022-08-19T02:55:29;99480.31;;;16.34;100.00
68941;BME280;55982;51.476;7.552;2022-08-19T02:57:54;99483.06;;;16.32;100.00
68941;BME280;55982;51.476;7.552;2022-08-19T03:00:20;99483.25;;;16.29;100.00
68941;BME280;55982;51.476;7.552;2022-08-19T03:02:45;99484.09;;;16.30;100.00
68941;BME280;55982;51.476;7.552;2022-08-19T03:05:12;99482.88;;;16.35;100.00
68941;BME280;55982;51.476;7.552;2022-08-19T03:07:38;99475.69;;;16.37;100.00
68941;BME280;55982;51.476;7.552;2022-08-19T03:10:04;99483.06;;;16.32;100.00
68941;BME280;55982;51.476;7.552;2022-08-19T03:12:30;99485.13;;;16.27;100.00
68941;BME280;55982;51.476;7.552;2022-08-19T03:14:55;99480.81;;;16.26;100.00
68941;BME280;55982;51.476;7.552;2022-08-19T03:17:21;99484.75;;;16.33;100.00
68941;BME280;55982;51.476;7.552;2022-08-19T03:19:46;99483.13;;;16.31;100.00
68941;BME280;55982;51.476;7.552;2022-08-19T03:22:12;99476.06;;;16.31;100.00
68941;BME280;55982;51.476;7.552;2022-08-19T03:24:38;99479.84;;;16.27;100.00
68941;BME280;55982;51.476;7.552;2022-08-19T03:27:04;99481.28;;;16.19;100.00
68941;BME280;55982;51.476;7.552;2022-08-19T03:29:30;99487.41;;;16.19;100.00
68941;BME280;55982;51.476;7.552;2022-08-19T03:32:00;99492.84;;;16.16;100.00
68941;BME280;55982;51.476;7.552;2022-08-19T03:34:29;99488.13;;;16.21;100.00
68941;BME280;55982;51.476;7.552;2022-08-19T03:36:58;99491.84;;;16.19;100.00
68941;BME280;55982;51.476;7.552;2022-08-19T03:39:25;99490.13;;;16.18;100.00
68941;BME280;55982;51.476;7.552;2022-08-19T03:41:52;99479.56;;;16.18;100.00
68941;BME280;55982;51.476;7.552;2022-08-19T03:44:21;99492.84;;;16.16;100.00
68941;BME280;55982;51.476;7.552;2022-08-19T03:46:50;99488.91;;;16.09;100.00
68941;BME280;55982;51.476;7.552;2022-08-19T03:49:17;99495.31;;;16.05;100.00
68941;BME280;55982;51.476;7.552;2022-08-19T03:51:43;99485.13;;;15.99;100.00
68941;BME280;55982;51.476;7.552;2022-08-19T03:54:11;99492.47;;;15.94;100.00
68941;BME280;55982;51.476;7.552;2022-08-19T03:56:38;99495.00;;;15.96;100.00
68941;BME280;55982;51.476;7.552;2022-08-19T03:59:06;99499.53;;;15.94;100.00
68941;BME280;55982;51.476;7.552;2022-08-19T04:01:32;99504.72;;;15.95;100.00
68941;BME280;55982;51.476;7.552;2022-08-19T04:03:58;99502.81;;;15.97;100.00
68941;BME280;55982;51.476;7.552;2022-08-19T04:06:35;99500.94;;;15.99;100.00
68941;BME280;55982;51.476;7.552;2022-08-19T04:09:04;99505.19;;;16.02;100.00
68941;BME280;55982;51.476;7.552;2022-08-19T04:11:35;99500.94;;;15.99;100.00
68941;BME280;55982;51.476;7.552;2022-08-19T04:14:00;99504.34;;;16.01;100.00
68941;BME280;55982;51.476;7.552;2022-08-19T04:16:27;99505.09;;;16.03;100.00
68941;BME280;55982;51.476;7.552;2022-08-19T04:18:54;99511.16;;;16.05;100.00
68941;BME280;55982;51.476;7.552;2022-08-19T04:21:23;99500.00;;;16.00;100.00
68941;BME280;55982;51.476;7.552;2022-08-19T04:23:49;99498.31;;;15.99;100.00
68941;BME280;55982;51.476;7.552;2022-08-19T04:26:16;99500.84;;;16.01;100.00
68941;BME280;55982;51.476;7.552;2022-08-19T04:28:43;99494.06;;;15.97;100.00
68941;BME280;55982;51.476;7.552;2022-08-19T04:31:17;99501.31;;;15.93;100.00
68941;BME280;55982;51.476;7.552;2022-08-19T04:33:43;99502.63;;;16.00;100.00
68941;BME280;55982;51.476;7.552;2022-08-19T04:36:16;99510.66;;;15.99;100.00
68941;BME280;55982;51.476;7.552;2022-08-19T04:38:42;99513.94;;;16.02;100.00
68941;BME280;55982;51.476;7.552;2022-08-19T04:41:08;99513.78;;;16.05;100.00
68941;BME280;55982;51.476;7.552;2022-08-19T04:43:52;99513.69;;;16.07;100.00
68941;BME280;55982;51.476;7.552;2022-08-19T04:46:17;99517.94;;;16.09;100.00
68941;BME280;55982;51.476;7.552;2022-08-19T04:48:43;99508.91;;;16.13;100.00
68941;BME280;55982;51.476;7.552;2022-08-19T04:51:10;99517.56;;;16.15;100.00
68941;BME280;55982;51.476;7.552;2022-08-19T04:53:40;99513.41;;;16.25;100.00
68941;BME280;55982;51.476;7.552;2022-08-19T04:56:16;99515.69;;;16.31;100.00
68941;BME280;55982;51.476;7.552;2022-08-19T04:58:43;99523.78;;;16.28;100.00
68941;BME280;55982;51.476;7.552;2022-08-19T05:01:23;99530.38;;;16.21;100.00
68941;BME280;55982;51.476;7.552;2022-08-19T05:03:49;99523.97;;;16.25;100.00
68941;BME280;55982;51.476;7.552;2022-08-19T05:06:16;99530.22;;;16.38;100.00
68941;BME280;55982;51.476;7.552;2022-08-19T05:08:43;99523.41;;;16.34;100.00
68941;BME280;55982;51.476;7.552;2022-08-19T05:11:13;99528.34;;;16.40;100.00
68941;BME280;55982;51.476;7.552;2022-08-19T05:13:39;99524.19;;;16.51;100.00
68941;BME280;55982;51.476;7.552;2022-08-19T05:16:05;99524.66;;;16.57;100.00
68941;BME280;55982;51.476;7.552;2022-08-19T05:18:30;99519.66;;;16.67;100.00
68941;BME280;55982;51.476;7.552;2022-08-19T05:21:17;99515.88;;;16.71;100.00
68941;BME280;55982;51.476;7.552;2022-08-19T05:24:02;99523.06;;;16.83;100.00
68941;BME280;55982;51.476;7.552;2022-08-19T05:26:27;99529.06;;;16.85;100.00
68941;BME280;55982;51.476;7.552;2022-08-19T05:28:53;99527.03;;;17.02;100.00
68941;BME280;55982;51.476;7.552;2022-08-19T05:31:19;99536.38;;;17.08;100.00
68941;BME280;55982;51.476;7.552;2022-08-19T05:33:44;99535.59;;;17.20;100.00
68941;BME280;55982;51.476;7.552;2022-08-19T05:36:10;99540.69;;;17.23;100.00
68941;BME280;55982;51.476;7.552;2022-08-19T05:38:36;99538.22;;;17.20;100.00
68941;BME280;55982;51.476;7.552;2022-08-19T05:41:14;99543.16;;;17.12;100.00
68941;BME280;55982;51.476;7.552;2022-08-19T05:43:41;99543.66;;;17.31;100.00
68941;BME280;55982;51.476;7.552;2022-08-19T05:46:07;99548.38;;;17.40;100.00
68941;BME280;55982;51.476;7.552;2022-08-19T05:48:34;99541.72;;;17.61;100.00
68941;BME280;55982;51.476;7.552;2022-08-19T05:51:05;99544.94;;;17.79;100.00
68941;BME280;55982;51.476;7.552;2022-08-19T05:53:31;99550.13;;;17.80;100.00
68941;BME280;55982;51.476;7.552;2022-08-19T05:55:57;99543.69;;;17.84;100.00
68941;BME280;55982;51.476;7.552;2022-08-19T05:58:23;99551.22;;;17.90;100.00
68941;BME280;55982;51.476;7.552;2022-08-19T06:00:49;99535.84;;;17.95;100.00
68941;BME280;55982;51.476;7.552;2022-08-19T06:03:15;99538.41;;;18.09;100.00
68941;BME280;55982;51.476;7.552;2022-08-19T06:05:41;99543.50;;;18.12;100.00
68941;BME280;55982;51.476;7.552;2022-08-19T06:08:06;99543.50;;;18.12;100.00
68941;BME280;55982;51.476;7.552;2022-08-19T06:10:32;99541.38;;;18.17;100.00
68941;BME280;55982;51.476;7.552;2022-08-19T06:12:58;99528.88;;;18.19;100.00
68941;BME280;55982;51.476;7.552;2022-08-19T06:15:23;99538.84;;;18.28;100.00
68941;BME280;55982;51.476;7.552;2022-08-19T06:17:50;99536.22;;;18.28;100.00
68941;BME280;55982;51.476;7.552;2022-08-19T06:20:16;99544.66;;;18.34;100.00
68941;BME280;55982;51.476;7.552;2022-08-19T06:22:45;99550.09;;;18.45;100.00
68941;BME280;55982;51.476;7.552;2022-08-19T06:25:12;99546.72;;;18.55;100.00
68941;BME280;55982;51.476;7.552;2022-08-19T06:27:39;99550.63;;;18.75;99.69
68941;BME280;55982;51.476;7.552;2022-08-19T06:30:04;99550.16;;;18.81;98.69
68941;BME280;55982;51.476;7.552;2022-08-19T06:32:30;99547.38;;;18.95;97.37
68941;BME280;55982;51.476;7.552;2022-08-19T06:34:56;99548.34;;;18.94;98.65
68941;BME280;55982;51.476;7.552;2022-08-19T06:37:22;99548.72;;;19.13;97.63
68941;BME280;55982;51.476;7.552;2022-08-19T06:39:48;99549.97;;;19.20;95.64
68941;BME280;55982;51.476;7.552;2022-08-19T06:42:14;99541.88;;;19.34;95.78
68941;BME280;55982;51.476;7.552;2022-08-19T06:44:45;99545.91;;;19.40;96.48
68941;BME280;55982;51.476;7.552;2022-08-19T06:47:17;99552.41;;;19.59;94.66
68941;BME280;55982;51.476;7.552;2022-08-19T06:49:43;99557.50;;;19.73;93.94
68941;BME280;55982;51.476;7.552;2022-08-19T06:52:09;99551.09;;;19.99;93.21
68941;BME280;55982;51.476;7.552;2022-08-19T06:54:37;99547.06;;;20.29;90.64
68941;BME280;55982;51.476;7.552;2022-08-19T06:57:03;99548.31;;;20.36;90.10
68941;BME280;55982;51.476;7.552;2022-08-19T06:59:30;99545.41;;;20.72;90.88
68941;BME280;55982;51.476;7.552;2022-08-19T07:01:59;99540.84;;;21.07;85.94
68941;BME280;55982;51.476;7.552;2022-08-19T07:04:29;99544.34;;;21.50;84.59
68941;BME280;55982;51.476;7.552;2022-08-19T07:07:03;99552.00;;;21.75;81.91
68941;BME280;55982;51.476;7.552;2022-08-19T07:09:32;99546.13;;;21.93;80.81
68941;BME280;55982;51.476;7.552;2022-08-19T07:11:57;99561.22;;;22.65;78.21
68941;BME280;55982;51.476;7.552;2022-08-19T07:14:26;99550.72;;;23.03;76.30
68941;BME280;55982;51.476;7.552;2022-08-19T07:16:53;99551.38;;;23.35;74.35
68941;BME280;55982;51.476;7.552;2022-08-19T07:19:24;99547.75;;;23.65;73.14
68941;BME280;55982;51.476;7.552;2022-08-19T07:21:52;99553.09;;;23.94;70.96
68941;BME280;55982;51.476;7.552;2022-08-19T07:24:20;99564.66;;;24.13;70.89
68941;BME280;55982;51.476;7.552;2022-08-19T07:26:49;99565.22;;;25.09;66.94
68941;BME280;55982;51.476;7.552;2022-08-19T07:29:16;99567.78;;;24.74;68.79
68941;BME280;55982;51.476;7.552;2022-08-19T07:31:42;99568.81;;;25.27;66.46
68941;BME280;55982;51.476;7.552;2022-08-19T07:34:10;99573.25;;;25.36;66.08
68941;BME280;55982;51.476;7.552;2022-08-19T07:36:38;99576.94;;;25.35;65.71
68941;BME280;55982;51.476;7.552;2022-08-19T07:39:09;99577.19;;;24.88;66.29
68941;BME280;55982;51.476;7.552;2022-08-19T07:41:35;99579.75;;;24.70;67.80
68941;BME280;55982;51.476;7.552;2022-08-19T07:44:03;99575.56;;;24.58;67.35
68941;BME280;55982;51.476;7.552;2022-08-19T07:46:33;99581.72;;;24.78;66.69
68941;BME280;55982;51.476;7.552;2022-08-19T07:48:59;99583.84;;;25.01;66.79
68941;BME280;55982;51.476;7.552;2022-08-19T07:51:26;99583.38;;;25.15;67.13
68941;BME280;55982;51.476;7.552;2022-08-19T07:53:52;99592.41;;;25.14;66.08
68941;BME280;55982;51.476;7.552;2022-08-19T07:56:20;99593.00;;;25.35;65.96
68941;BME280;55982;51.476;7.552;2022-08-19T07:58:47;99596.91;;;25.86;62.24
68941;BME280;55982;51.476;7.552;2022-08-19T08:01:19;99602.94;;;25.53;65.00
68941;BME280;55982;51.476;7.552;2022-08-19T08:03:47;99607.38;;;26.24;64.46
68941;BME280;55982;51.476;7.552;2022-08-19T08:06:31;99614.06;;;26.89;59.03
68941;BME280;55982;51.476;7.552;2022-08-19T08:09:19;99612.19;;;26.81;59.25
68941;BME280;55982;51.476;7.552;2022-08-19T08:11:58;99607.78;;;26.80;59.29
68941;BME280;55982;51.476;7.552;2022-08-19T08:14:28;99612.84;;;27.43;60.17
68941;BME280;55982;51.476;7.552;2022-08-19T08:16:55;99612.56;;;27.20;57.93
68941;BME280;55982;51.476;7.552;2022-08-19T08:19:24;99613.78;;;27.00;59.36
68941;BME280;55982;51.476;7.552;2022-08-19T08:21:50;99611.31;;;27.06;58.40
68941;BME280;55982;51.476;7.552;2022-08-19T08:24:16;99607.31;;;27.10;57.65
68941;BME280;55982;51.476;7.552;2022-08-19T08:26:43;99608.19;;;26.85;58.22
68941;BME280;55982;51.476;7.552;2022-08-19T08:29:10;99614.91;;;26.46;60.53
68941;BME280;55982;51.476;7.552;2022-08-19T08:31:37;99611.81;;;27.10;58.09
68941;BME280;55982;51.476;7.552;2022-08-19T08:34:03;99614.28;;;26.70;59.29
68941;BME280;55982;51.476;7.552;2022-08-19T08:36:28;99611.53;;;26.87;58.54
68941;BME280;55982;51.476;7.552;2022-08-19T08:38:54;99614.06;;;27.56;57.33
68941;BME280;55982;51.476;7.552;2022-08-19T08:45:17;99617.91;;;28.68;56.74
68941;BME280;55982;51.476;7.552;2022-08-19T08:47:18;99617.66;;;28.93;53.55
68941;BME280;55982;51.476;7.552;2022-08-19T08:49:53;99618.41;;;28.63;53.16
68941;BME280;55982;51.476;7.552;2022-08-19T08:52:32;99607.28;;;28.42;53.40
68941;BME280;55982;51.476;7.552;2022-08-19T08:55:10;99616.38;;;28.25;54.24
68941;BME280;55982;51.476;7.552;2022-08-19T09:00:08;99612.06;;;29.19;52.80
68941;BME280;55982;51.476;7.552;2022-08-19T09:02:35;99608.31;;;29.98;49.27
68941;BME280;55982;51.476;7.552;2022-08-19T09:05:00;99606.59;;;29.74;49.95
68941;BME280;55982;51.476;7.552;2022-08-19T09:07:50;99614.47;;;31.47;45.23
68941;BME280;55982;51.476;7.552;2022-08-19T09:10:39;99608.94;;;30.82;47.28
68941;BME280;55982;51.476;7.552;2022-08-19T09:13:16;99597.97;;;31.92;43.44
68941;BME280;55982;51.476;7.552;2022-08-19T09:15:55;99604.13;;;31.07;44.74
68941;BME280;55982;51.476;7.552;2022-08-19T09:18:22;99603.81;;;29.21;48.48
68941;BME280;55982;51.476;7.552;2022-08-19T09:20:48;99608.81;;;28.37;51.37
68941;BME280;55982;51.476;7.552;2022-08-19T09:23:14;99607.78;;;28.46;51.52
68941;BME280;55982;51.476;7.552;2022-08-19T09:25:39;99606.63;;;28.64;51.14
68941;BME280;55982;51.476;7.552;2022-08-19T09:28:05;99604.59;;;28.66;50.81
68941;BME280;55982;51.476;7.552;2022-08-19T09:30:34;99608.41;;;27.75;53.61
68941;BME280;55982;51.476;7.552;2022-08-19T09:33:04;99607.53;;;26.91;55.43
68941;BME280;55982;51.476;7.552;2022-08-19T09:35:30;99601.66;;;27.71;54.55
68941;BME280;55982;51.476;7.552;2022-08-19T09:37:56;99594.34;;;28.70;52.47
68941;BME280;55982;51.476;7.552;2022-08-19T09:40:22;99605.56;;;28.89;50.80
68941;BME280;55982;51.476;7.552;2022-08-19T09:42:48;99594.34;;;29.25;49.23
68941;BME280;55982;51.476;7.552;2022-08-19T09:45:15;99599.81;;;29.01;49.94
68941;BME280;55982;51.476;7.552;2022-08-19T09:47:42;99600.41;;;29.96;48.13
68941;BME280;55982;51.476;7.552;2022-08-19T09:50:10;99595.41;;;29.85;47.41
68941;BME280;55982;51.476;7.552;2022-08-19T09:52:37;99590.09;;;29.38;46.24
68941;BME280;55982;51.476;7.552;2022-08-19T09:55:07;99592.59;;;29.40;46.66
68941;BME280;55982;51.476;7.552;2022-08-19T09:57:33;99595.00;;;29.73;45.90
68941;BME280;55982;51.476;7.552;2022-08-19T09:59:59;99596.75;;;31.30;42.54
68941;BME280;55982;51.476;7.552;2022-08-19T10:02:25;99599.94;;;31.48;41.17
68941;BME280;55982;51.476;7.552;2022-08-19T10:04:51;99594.69;;;31.61;40.99
68941;BME280;55982;51.476;7.552;2022-08-19T10:07:35;99592.09;;;31.53;41.36
68941;BME280;55982;51.476;7.552;2022-08-19T10:10:00;99600.81;;;30.30;44.12
68941;BME280;55982;51.476;7.552;2022-08-19T10:12:26;99604.84;;;29.20;45.79
68941;BME280;55982;51.476;7.552;2022-08-19T10:14:51;99594.69;;;28.43;47.54
68941;BME280;55982;51.476;7.552;2022-08-19T10:17:18;99607.53;;;29.20;46.49
68941;BME280;55982;51.476;7.552;2022-08-19T10:19:44;99596.34;;;29.39;44.79
68941;BME280;55982;51.476;7.552;2022-08-19T10:22:09;99602.19;;;30.26;43.55
68941;BME280;55982;51.476;7.552;2022-08-19T10:24:39;99585.44;;;30.53;41.53
68941;BME280;55982;51.476;7.552;2022-08-19T10:27:05;99580.75;;;30.85;41.85
68941;BME280;55982;51.476;7.552;2022-08-19T10:29:31;99573.50;;;32.00;40.26
68941;BME280;55982;51.476;7.552;2022-08-19T10:31:58;99581.63;;;31.86;40.72
68941;BME280;55982;51.476;7.552;2022-08-19T10:34:25;99583.91;;;31.03;41.82
68941;BME280;55982;51.476;7.552;2022-08-19T10:36:51;99580.84;;;29.94;44.22
68941;BME280;55982;51.476;7.552;2022-08-19T10:39:21;99577.03;;;28.56;47.66
68941;BME280;55982;51.476;7.552;2022-08-19T10:41:47;99588.81;;;27.99;49.84
68941;BME280;55982;51.476;7.552;2022-08-19T10:44:14;99584.25;;;26.74;52.55
68941;BME280;55982;51.476;7.552;2022-08-19T10:46:43;99584.13;;;26.15;53.76
68941;BME280;55982;51.476;7.552;2022-08-19T10:49:10;99588.63;;;26.06;54.49
68941;BME280;55982;51.476;7.552;2022-08-19T10:51:37;99584.09;;;25.45;56.52
68941;BME280;55982;51.476;7.552;2022-08-19T10:54:29;99578.22;;;26.29;54.12
68941;BME280;55982;51.476;7.552;2022-08-19T10:57:14;99586.69;;;26.85;52.93
68941;BME280;55982;51.476;7.552;2022-08-19T10:59:40;99577.09;;;26.83;52.56
68941;BME280;55982;51.476;7.552;2022-08-19T11:02:09;99579.72;;;27.00;51.71
68941;BME280;55982;51.476;7.552;2022-08-19T11:04:37;99573.00;;;26.45;53.43
68941;BME280;55982;51.476;7.552;2022-08-19T11:07:04;99578.44;;;27.21;51.56
68941;BME280;55982;51.476;7.552;2022-08-19T11:09:30;99569.13;;;27.33;51.38
68941;BME280;55982;51.476;7.552;2022-08-19T11:11:56;99568.97;;;27.00;51.00
68941;BME280;55982;51.476;7.552;2022-08-19T11:14:22;99577.38;;;28.21;49.02
68941;BME280;55982;51.476;7.552;2022-08-19T11:16:49;99575.00;;;28.42;48.47
68941;BME280;55982;51.476;7.552;2022-08-19T11:19:16;99568.59;;;28.03;48.68
68941;BME280;55982;51.476;7.552;2022-08-19T11:21:45;99572.97;;;27.96;49.40
68941;BME280;55982;51.476;7.552;2022-08-19T11:24:18;99565.59;;;27.98;48.08
68941;BME280;55982;51.476;7.552;2022-08-19T11:26:45;99564.56;;;28.07;47.46
68941;BME280;55982;51.476;7.552;2022-08-19T11:29:12;99557.53;;;28.54;46.74
68941;BME280;55982;51.476;7.552;2022-08-19T11:31:41;99565.50;;;28.95;45.34
68941;BME280;55982;51.476;7.552;2022-08-19T11:34:09;99560.84;;;28.64;49.04
68941;BME280;55982;51.476;7.552;2022-08-19T11:36:38;99555.13;;;29.53;43.60
68941;BME280;55982;51.476;7.552;2022-08-19T11:39:05;99553.50;;;30.20;41.50
68941;BME280;55982;51.476;7.552;2022-08-19T11:41:31;99547.31;;;31.36;39.57
68941;BME280;55982;51.476;7.552;2022-08-19T11:43:56;99546.19;;;30.06;39.89
68941;BME280;55982;51.476;7.552;2022-08-19T11:46:24;99544.78;;;29.34;40.49
68941;BME280;55982;51.476;7.552;2022-08-19T11:48:50;99544.97;;;29.86;42.33
68941;BME280;55982;51.476;7.552;2022-08-19T11:51:19;99547.91;;;31.17;39.58
68941;BME280;55982;51.476;7.552;2022-08-19T11:53:45;99533.91;;;30.40;40.74
68941;BME280;55982;51.476;7.552;2022-08-19T11:56:11;99543.28;;;30.07;41.30
68941;BME280;55982;51.476;7.552;2022-08-19T11:58:37;99539.53;;;29.02;44.75
68941;BME280;55982;51.476;7.552;2022-08-19T12:01:10;99541.03;;;28.25;45.01
68941;BME280;55982;51.476;7.552;2022-08-19T12:03:36;99537.53;;;28.00;45.75
68941;BME280;55982;51.476;7.552;2022-08-19T12:06:06;99550.06;;;27.60;47.59
68941;BME280;55982;51.476;7.552;2022-08-19T12:08:32;99546.03;;;27.64;45.69
68941;BME280;55982;51.476;7.552;2022-08-19T12:10:57;99547.28;;;28.10;44.48
68941;BME280;55982;51.476;7.552;2022-08-19T12:13:23;99544.63;;;30.11;40.09
68941;BME280;55982;51.476;7.552;2022-08-19T12:15:49;99543.34;;;30.59;38.78
68941;BME280;55982;51.476;7.552;2022-08-19T12:18:14;99538.34;;;29.96;40.03
68941;BME280;55982;51.476;7.552;2022-08-19T12:20:41;99549.38;;;30.46;39.34
68941;BME280;55982;51.476;7.552;2022-08-19T12:23:08;99548.84;;;31.24;38.43
68941;BME280;55982;51.476;7.552;2022-08-19T12:25:35;99535.31;;;30.36;40.33
68941;BME280;55982;51.476;7.552;2022-08-19T12:28:00;99538.81;;;31.18;39.14
68941;BME280;55982;51.476;7.552;2022-08-19T12:30:26;99545.28;;;30.80;40.32
68941;BME280;55982;51.476;7.552;2022-08-19T12:32:52;99536.66;;;31.85;38.94
68941;BME280;55982;51.476;7.552;2022-08-19T12:35:18;99542.72;;;31.01;40.45
68941;BME280;55982;51.476;7.552;2022-08-19T12:37:46;99538.63;;;30.76;41.57
68941;BME280;55982;51.476;7.552;2022-08-19T12:40:12;99540.66;;;31.03;40.46
68941;BME280;55982;51.476;7.552;2022-08-19T12:42:39;99529.78;;;30.96;39.84
68941;BME280;55982;51.476;7.552;2022-08-19T12:45:12;99524.50;;;30.51;41.02
68941;BME280;55982;51.476;7.552;2022-08-19T12:47:38;99518.44;;;31.93;38.11
68941;BME280;55982;51.476;7.552;2022-08-19T12:50:05;99526.69;;;32.27;36.47
68941;BME280;55982;51.476;7.552;2022-08-19T12:52:34;99519.09;;;32.44;36.50
68941;BME280;55982;51.476;7.552;2022-08-19T12:55:04;99511.56;;;32.74;37.45
68941;BME280;55982;51.476;7.552;2022-08-19T12:57:30;99508.97;;;33.34;34.62
68941;BME280;55982;51.476;7.552;2022-08-19T13:00:00;99515.59;;;32.84;34.94
68941;BME280;55982;51.476;7.552;2022-08-19T13:02:25;99504.28;;;33.82;33.67
68941;BME280;55982;51.476;7.552;2022-08-19T13:04:51;99503.28;;;34.29;31.97
68941;BME280;55982;51.476;7.552;2022-08-19T13:07:17;99498.69;;;34.42;31.96